GQPA/ATR METAR and TAF weather

Enter ICAO airport designator
Station Type Date Time Source
GQPA METAR 2018/10/20 18:00 UTC NOAA

GQPA 201800Z VRB06KT 8000 NSC 33/12 Q1014


Station Type Date Time Source
GQPA Decoded METAR 2018/10/20 18:00 UTC NOAA

Atar, Mauritania (GQPA) 20-31N 013-04W 224M
Oct 20, 2018 - 02:00 PM EDT / 2018.10.20 1800 UTC
Wind: Variable at 7 MPH (6 KT):0
Visibility: 4 mile(s):0
Temperature: 91 F (33 C)
Dew Point: 53 F (12 C)
Relative Humidity: 27%
Pressure (altimeter): 29.94 in. Hg (1014 hPa)
ob: GQPA 201800Z VRB06KT 8000 NSC 33/12 Q1014
cycle: 18

Station Type Date Time Source
GQPA TAF UTC NOAA

Error!


Example: see airport list